Time;durP1;ratioP1;P1;durP2;ratioP2;P2;SDS_P1;SDS_P2;PMS_P1;PMS_P2;Temp;Humidity;BMP_temperature;BMP_pressure;BME280_temperature;BME280_humidity;BME280_pressure;Samples;Min_cycle;Max_cycle;Signal;HPM_P1;HPM_P2
2021/03/06 00:01:27;;;;;;;0.10;0.10;;;;;;;-1.08;94.93;100938.05;1791449;80;21208;-45
2021/03/06 00:04:26;;;;;;;0.17;0.17;;;;;;;-1.07;94.17;100938.36;1820377;78;21513;-45
2021/03/06 00:07:27;;;;;;;0.95;0.95;;;;;;;-1.00;93.16;100939.78;1770280;78;21899;-45
2021/03/06 00:10:30;;;;;;;0.10;0.10;;;;;;;-0.95;92.96;100936.01;1787673;80;21150;-45
2021/03/06 00:13:31;;;;;;;0.00;0.00;;;;;;;-0.95;92.87;100928.78;1788049;80;21241;-45
2021/03/06 00:16:31;;;;;;;0.10;0.10;;;;;;;-0.94;91.88;100930.95;1806371;78;21418;-45
2021/03/06 00:19:34;;;;;;;0.10;0.10;;;;;;;-0.92;91.51;100925.70;1755418;81;21679;-45
2021/03/06 00:22:34;;;;;;;0.10;0.10;;;;;;;-0.92;91.51;100921.69;1790702;78;21347;-44
2021/03/06 00:25:35;;;;;;;0.08;0.08;;;;;;;-0.93;91.23;100920.03;1797866;79;21570;-45
2021/03/06 00:28:36;;;;;;;0.10;0.10;;;;;;;-0.94;90.91;100925.09;1814350;78;21197;-45
2021/03/06 00:31:37;;;;;;;0.00;0.00;;;;;;;-0.94;90.54;100930.95;1763763;80;21155;-45
2021/03/06 00:34:37;;;;;;;0.00;0.00;;;;;;;-0.94;90.16;100932.30;1781697;80;21684;-44
2021/03/06 00:37:38;;;;;;;0.10;0.10;;;;;;;-0.94;89.53;100926.92;1781357;79;21139;-45
2021/03/06 00:40:38;;;;;;;0.15;0.15;;;;;;;-0.93;89.00;100937.99;1803715;78;21217;-45
2021/03/06 00:43:38;;;;;;;0.40;0.40;;;;;;;-0.94;88.71;100934.48;1820234;78;21410;-44
2021/03/06 00:46:39;;;;;;;0.10;0.10;;;;;;;-0.93;88.48;100932.63;1820177;78;21124;-45
2021/03/06 00:49:39;;;;;;;0.68;0.68;;;;;;;-0.95;88.31;100934.16;1787588;80;21099;-45
2021/03/06 00:52:40;;;;;;;0.10;0.10;;;;;;;-0.96;88.27;100936.53;1750508;80;21174;-45
2021/03/06 00:55:41;;;;;;;0.10;0.10;;;;;;;-0.98;88.23;100931.86;1776425;80;21648;-45
2021/03/06 00:58:41;;;;;;;0.00;0.00;;;;;;;-1.00;88.27;100941.13;1748774;80;21487;-45
2021/03/06 01:01:41;;;;;;;0.10;0.10;;;;;;;-1.03;88.23;100938.31;1748330;82;21142;-45
2021/03/06 01:04:42;;;;;;;0.05;0.05;;;;;;;-1.05;87.92;100935.50;1760506;81;21584;-45
2021/03/06 01:07:42;;;;;;;0.20;0.20;;;;;;;-1.06;87.78;100935.16;1773682;80;21090;-44
2021/03/06 01:10:46;;;;;;;0.10;0.10;;;;;;;-1.08;87.74;100939.39;1783984;80;21161;-45
2021/03/06 01:13:47;;;;;;;0.10;0.10;;;;;;;-1.09;87.78;100935.03;1781237;80;20964;-45
2021/03/06 01:16:48;;;;;;;0.10;0.10;;;;;;;-1.09;87.82;100945.77;1782366;80;21126;-44
2021/03/06 01:19:48;;;;;;;0.10;0.10;;;;;;;-1.12;87.78;100940.27;1791697;80;21122;-45
2021/03/06 01:22:50;;;;;;;0.05;0.05;;;;;;;-1.11;87.64;100930.40;1791229;79;21473;-44
2021/03/06 01:25:50;;;;;;;0.10;0.10;;;;;;;-1.12;87.60;100925.52;1795223;79;21134;-45
2021/03/06 01:28:51;;;;;;;0.10;0.10;;;;;;;-1.13;87.52;100924.39;1778631;79;21131;-45
2021/03/06 01:31:51;;;;;;;0.20;0.20;;;;;;;-1.12;87.47;100938.93;1761095;80;21126;-45
2021/03/06 01:34:52;;;;;;;0.13;0.13;;;;;;;-1.14;87.54;100938.31;1760797;79;21176;-45
2021/03/06 01:37:52;;;;;;;0.10;0.10;;;;;;;-1.15;87.65;100934.47;1776921;80;21159;-45
2021/03/06 01:40:52;;;;;;;0.10;0.10;;;;;;;-1.19;87.77;100935.86;1768416;81;21138;-45
2021/03/06 01:43:53;;;;;;;0.15;0.15;;;;;;;-1.21;87.87;100932.53;1777895;80;21398;-45
2021/03/06 01:46:53;;;;;;;0.10;0.10;;;;;;;-1.23;87.94;100935.94;1768490;81;21130;-44
2021/03/06 01:49:55;;;;;;;0.30;0.30;;;;;;;-1.26;88.04;100945.68;1768654;81;21179;-46
2021/03/06 01:52:55;;;;;;;0.00;0.00;;;;;;;-1.28;88.11;100947.75;1776030;79;21177;-45
2021/03/06 01:55:56;;;;;;;0.10;0.10;;;;;;;-1.30;88.16;100951.95;1794127;79;21149;-44
2021/03/06 01:58:56;;;;;;;0.10;0.10;;;;;;;-1.31;88.22;100951.13;1740883;82;21162;-45
2021/03/06 02:01:57;;;;;;;1.67;0.53;;;;;;;-1.33;88.30;100951.81;1733679;80;21193;-45
2021/03/06 02:04:58;;;;;;;0.10;0.10;;;;;;;-1.35;88.46;100956.53;1772353;80;21453;-44
2021/03/06 02:07:58;;;;;;;0.00;0.00;;;;;;;-1.37;88.63;100963.10;1769519;80;21134;-45
2021/03/06 02:10:59;;;;;;;0.00;0.00;;;;;;;-1.38;88.81;100964.13;1771815;80;21691;-45
2021/03/06 02:14:13;;;;;;;0.10;0.10;;;;;;;-1.41;88.93;100961.81;1772357;80;21177;-45
2021/03/06 02:17:30;;;;;;;0.10;0.10;;;;;;;-1.42;89.02;100967.69;1772489;80;21154;-45
2021/03/06 02:20:50;;;;;;;0.10;0.10;;;;;;;-1.43;89.13;100967.89;1771862;80;21150;-45
2021/03/06 02:24:16;;;;;;;0.10;0.10;;;;;;;-1.44;89.19;100971.05;1750613;80;21137;-45
2021/03/06 02:27:45;;;;;;;0.53;0.53;;;;;;;-1.45;89.21;100981.47;1772061;80;21169;-45
2021/03/06 02:30:45;;;;;;;0.10;0.10;;;;;;;-1.44;89.18;101001.88;1772295;80;21141;-45
2021/03/06 02:33:48;;;;;;;0.08;0.08;;;;;;;-1.41;89.19;101007.38;1772492;80;21154;-45
2021/03/06 02:36:53;;;;;;;0.00;0.00;;;;;;;-1.41;89.12;101012.26;1772772;80;21137;-45
2021/03/06 02:39:54;;;;;;;0.10;0.10;;;;;;;-1.40;88.99;101013.09;1751570;80;22008;-44
2021/03/06 02:42:56;;;;;;;0.40;0.40;;;;;;;-1.42;88.87;101010.58;1771875;80;21576;-44
2021/03/06 02:45:59;;;;;;;0.10;0.10;;;;;;;-1.40;87.95;101022.47;1771565;80;21110;-45
2021/03/06 02:48:59;;;;;;;0.23;0.23;;;;;;;-1.39;87.59;101024.94;1772408;80;21421;-45
2021/03/06 02:51:59;;;;;;;0.03;0.03;;;;;;;-1.36;87.20;101029.09;1772641;80;21126;-45
2021/03/06 02:55:01;;;;;;;0.20;0.20;;;;;;;-1.36;87.06;101032.64;1772057;80;21174;-44
2021/03/06 02:58:51;;;;;;;0.15;0.15;;;;;;;-1.36;86.49;101031.30;1750835;81;21197;-45
2021/03/06 03:02:21;;;;;;;0.17;0.17;;;;;;;-1.35;85.90;101037.48;1754029;81;21162;-45
2021/03/06 03:05:33;;;;;;;0.10;0.10;;;;;;;-1.34;85.77;101045.84;1754141;81;21181;-44
2021/03/06 03:08:40;;;;;;;0.13;0.13;;;;;;;-1.36;84.76;101042.50;1754410;81;21166;-45
2021/03/06 03:12:07;;;;;;;0.10;0.10;;;;;;;-1.36;83.96;101047.37;1754406;81;21138;-45
2021/03/06 03:15:24;;;;;;;0.30;0.30;;;;;;;-1.35;82.65;101058.93;1754723;80;21194;-46
2021/03/06 03:18:29;;;;;;;0.10;0.10;;;;;;;-1.34;82.24;101054.70;1754460;81;21142;-45
2021/03/06 03:21:30;;;;;;;0.00;0.00;;;;;;;-1.36;82.00;101063.47;1754175;81;21116;-45
2021/03/06 03:24:30;;;;;;;0.10;0.10;;;;;;;-1.38;80.96;101070.86;1755112;80;21144;-45
2021/03/06 03:27:31;;;;;;;0.30;0.30;;;;;;;-1.38;80.50;101076.73;1754328;81;21183;-45
2021/03/06 03:30:31;;;;;;;0.10;0.10;;;;;;;-1.41;80.52;101080.63;1767380;80;21115;-44
2021/03/06 03:33:32;;;;;;;0.10;0.10;;;;;;;-1.43;79.56;101085.33;1785475;80;21155;-44
2021/03/06 03:36:32;;;;;;;2.40;0.72;;;;;;;-1.43;79.67;101093.38;1783042;80;21545;-45
2021/03/06 03:39:32;;;;;;;0.05;0.05;;;;;;;-1.43;79.86;101095.23;1785292;79;21132;-45
2021/03/06 03:42:33;;;;;;;0.10;0.10;;;;;;;-1.47;79.69;101084.03;1785390;80;21859;-45
2021/03/06 03:45:35;;;;;;;0.10;0.10;;;;;;;-1.49;78.97;101091.42;1754820;80;21186;-44
2021/03/06 03:48:36;;;;;;;0.23;0.23;;;;;;;-1.48;78.65;101085.54;1741543;80;21425;-45
2021/03/06 03:51:37;;;;;;;0.05;0.05;;;;;;;-1.48;78.16;101084.20;1749960;80;21140;-45
2021/03/06 03:54:37;;;;;;;0.47;0.47;;;;;;;-1.50;77.94;101085.74;1754430;81;21157;-44
2021/03/06 03:57:38;;;;;;;0.10;0.10;;;;;;;-1.51;77.96;101092.10;1766148;80;21124;-45
2021/03/06 04:00:38;;;;;;;0.10;0.10;;;;;;;-1.54;78.93;101087.94;1790792;79;21151;-45
2021/03/06 04:03:40;;;;;;;0.25;0.25;;;;;;;-1.57;78.64;101090.17;1787722;79;21151;-45
2021/03/06 04:06:41;;;;;;;0.10;0.10;;;;;;;-1.58;78.85;101092.55;1794041;79;21126;-45
2021/03/06 04:09:41;;;;;;;0.10;0.10;;;;;;;-1.62;79.20;101097.94;1797351;79;21560;-45
2021/03/06 04:12:43;;;;;;;0.10;0.10;;;;;;;-1.66;79.06;101091.27;1800202;79;21130;-45
2021/03/06 04:15:44;;;;;;;0.10;0.10;;;;;;;-1.70;79.60;101094.84;1794253;79;21190;-44
2021/03/06 04:18:44;;;;;;;0.10;0.10;;;;;;;-1.73;79.67;101099.23;1782283;80;21410;-45
2021/03/06 04:21:44;;;;;;;0.10;0.10;;;;;;;-1.78;79.77;101093.07;1775276;79;21165;-44
2021/03/06 04:24:45;;;;;;;0.13;0.13;;;;;;;-1.82;78.45;101105.16;1781007;79;21126;-44
2021/03/06 04:27:47;;;;;;;0.10;0.10;;;;;;;-1.80;77.05;101112.51;1782317;80;21158;-45
2021/03/06 04:30:48;;;;;;;0.85;0.33;;;;;;;-1.80;76.91;101115.19;1787865;79;21557;-44
2021/03/06 04:33:47;;;;;;;0.13;0.13;;;;;;;-1.84;76.80;101118.41;1770889;81;21131;-45
2021/03/06 04:36:48;;;;;;;0.10;0.10;;;;;;;-1.90;77.42;101114.62;1783211;80;21122;-45
2021/03/06 04:39:49;;;;;;;0.33;0.33;;;;;;;-1.97;78.00;101113.67;1780301;80;21562;-44
2021/03/06 04:42:49;;;;;;;0.20;0.20;;;;;;;-2.03;78.27;101121.08;1777770;80;21162;-45
2021/03/06 04:45:49;;;;;;;0.10;0.10;;;;;;;-2.08;78.59;101126.14;1754902;81;21553;-44
2021/03/06 04:48:50;;;;;;;0.10;0.10;;;;;;;-2.17;78.83;101131.57;1787986;80;21551;-45
2021/03/06 04:51:50;;;;;;;0.10;0.10;;;;;;;-2.21;78.94;101136.12;1787605;80;21122;-46
2021/03/06 04:54:50;;;;;;;0.00;0.00;;;;;;;-2.26;79.39;101146.02;1786589;79;21138;-46
2021/03/06 04:57:51;;;;;;;0.00;0.00;;;;;;;-2.31;79.78;101147.06;1771666;80;21207;-45
2021/03/06 05:00:51;;;;;;;0.00;0.00;;;;;;;-2.34;80.15;101149.27;1791256;79;21145;-45
2021/03/06 05:03:52;;;;;;;0.10;0.10;;;;;;;-2.38;80.09;101154.12;1799450;79;21581;-45
2021/03/06 05:06:55;;;;;;;0.10;0.10;;;;;;;-2.40;79.52;101156.14;1800112;79;21611;-45
2021/03/06 05:09:55;;;;;;;0.10;0.10;;;;;;;-2.42;79.21;101163.03;1800110;79;21597;-45
2021/03/06 05:12:56;;;;;;;0.10;0.10;;;;;;;-2.40;78.49;101160.16;1771824;79;21153;-45
2021/03/06 05:15:56;;;;;;;0.08;0.08;;;;;;;-2.37;78.62;101171.88;1786028;79;21412;-46
2021/03/06 05:18:57;;;;;;;0.10;0.10;;;;;;;-2.33;78.62;101185.73;1772682;79;21151;-45
2021/03/06 05:21:57;;;;;;;1.77;1.27;;;;;;;-2.31;78.38;101187.73;1768723;81;21143;-44
2021/03/06 05:24:58;;;;;;;0.10;0.10;;;;;;;-2.28;78.49;101190.88;1768670;81;21167;-46
2021/03/06 05:27:59;;;;;;;0.10;0.10;;;;;;;-2.25;77.74;101199.91;1768753;81;21182;-45
2021/03/06 05:31:00;;;;;;;0.10;0.10;;;;;;;-2.20;77.43;101200.22;1768590;79;21181;-44
2021/03/06 05:34:00;;;;;;;0.10;0.10;;;;;;;-2.16;75.57;101211.39;1768537;81;21512;-45
2021/03/06 05:37:02;;;;;;;0.10;0.10;;;;;;;-2.11;75.86;101216.22;1768450;81;21161;-46
2021/03/06 05:40:02;;;;;;;1.87;0.75;;;;;;;-2.08;76.00;101218.53;1780939;79;21119;-45
2021/03/06 05:43:03;;;;;;;0.08;0.08;;;;;;;-2.04;76.13;101218.52;1775649;79;21529;-45
2021/03/06 05:46:03;;;;;;;0.20;0.20;;;;;;;-1.98;75.59;101224.48;1772472;79;21143;-44
2021/03/06 05:49:04;;;;;;;0.33;0.33;;;;;;;-1.90;74.89;101227.61;1761740;81;21592;-45
2021/03/06 05:52:05;;;;;;;0.10;0.10;;;;;;;-1.82;74.65;101235.61;1767086;79;21142;-45
2021/03/06 05:55:08;;;;;;;0.47;0.40;;;;;;;-1.78;74.12;101235.08;1768776;81;20988;-44
2021/03/06 05:58:11;;;;;;;0.30;0.17;;;;;;;-1.76;73.29;101251.78;1761145;80;21167;-45
2021/03/06 06:01:11;;;;;;;0.03;0.03;;;;;;;-1.74;72.68;101263.17;1759708;78;21146;-45
2021/03/06 06:04:11;;;;;;;0.10;0.10;;;;;;;-1.65;73.21;101260.45;1800310;78;21090;-45
2021/03/06 06:07:12;;;;;;;0.10;0.10;;;;;;;-1.58;71.95;101265.42;1796313;79;21157;-44
2021/03/06 06:10:16;;;;;;;0.10;0.10;;;;;;;-1.54;71.67;101268.88;1790094;79;21154;-45
2021/03/06 06:13:18;;;;;;;0.10;0.10;;;;;;;-1.52;70.02;101286.12;1829310;78;21154;-46
2021/03/06 06:16:19;;;;;;;0.33;0.33;;;;;;;-1.54;69.27;101288.16;1764863;81;21127;-44
2021/03/06 06:19:19;;;;;;;0.25;0.25;;;;;;;-1.53;68.00;101288.50;1765941;79;21144;-45
2021/03/06 06:22:28;;;;;;;0.10;0.10;;;;;;;-1.52;68.36;101295.00;1762888;81;21118;-46
2021/03/06 06:25:37;;;;;;;0.30;0.30;;;;;;;-1.48;67.58;101291.47;1804431;78;21182;-45
2021/03/06 06:28:55;;;;;;;0.10;0.10;;;;;;;-1.51;65.46;101291.81;1804511;79;21145;-44
2021/03/06 06:31:59;;;;;;;0.10;0.10;;;;;;;-1.54;66.22;101302.89;1775109;79;21150;-45
2021/03/06 06:35:13;;;;;;;0.10;0.10;;;;;;;-1.56;67.37;101302.23;1796659;79;21103;-45
2021/03/06 06:38:13;;;;;;;0.25;0.25;;;;;;;-1.49;68.05;101305.87;1787399;79;21137;-45
2021/03/06 06:41:14;;;;;;;0.17;0.17;;;;;;;-1.33;68.79;101313.80;1814727;78;21134;-46
2021/03/06 06:44:14;;;;;;;0.23;0.23;;;;;;;-1.18;67.26;101310.33;1811425;78;21651;-45
2021/03/06 06:47:20;;;;;;;0.10;0.10;;;;;;;-1.19;64.73;101311.33;1776205;79;21165;-45
2021/03/06 06:50:21;;;;;;;0.30;0.30;;;;;;;-1.28;64.79;101316.46;1763112;80;21159;-44
2021/03/06 06:53:34;;;;;;;0.10;0.10;;;;;;;-1.28;64.51;101330.70;1738890;80;39410;-45
2021/03/06 06:56:34;;;;;;;1.17;0.30;;;;;;;-1.23;64.21;101336.86;1790082;79;21150;-44
2021/03/06 06:59:35;;;;;;;0.20;0.20;;;;;;;-1.26;62.06;101325.98;1793834;78;21214;-45
2021/03/06 07:02:35;;;;;;;0.37;0.37;;;;;;;-1.20;64.72;101334.64;1785671;78;21135;-45
2021/03/06 07:05:46;;;;;;;0.10;0.10;;;;;;;-1.01;65.99;101333.83;1793941;78;21139;-45
2021/03/06 07:08:46;;;;;;;0.20;0.20;;;;;;;-0.82;63.33;101339.16;1819613;78;21122;-45
2021/03/06 07:11:49;;;;;;;0.10;0.10;;;;;;;-0.88;61.05;101341.56;1813840;78;21418;-46
2021/03/06 07:14:49;;;;;;;0.10;0.10;;;;;;;-0.93;61.65;101337.77;1802900;78;21142;-45
2021/03/06 07:17:51;;;;;;;0.10;0.10;;;;;;;-0.87;62.36;101337.88;1780850;79;21139;-45
2021/03/06 07:20:53;;;;;;;0.10;0.10;;;;;;;-0.78;60.26;101338.63;1777029;79;21205;-45
2021/03/06 07:23:53;;;;;;;0.20;0.20;;;;;;;-0.76;59.63;101331.74;1786482;79;21166;-44
2021/03/06 07:26:54;;;;;;;0.10;0.10;;;;;;;-0.70;62.63;101335.02;1749699;79;21433;-45
2021/03/06 07:29:54;;;;;;;0.03;0.03;;;;;;;-0.46;61.06;101335.27;1768780;81;21451;-45
2021/03/06 07:32:54;;;;;;;0.10;0.10;;;;;;;-0.21;61.09;101339.84;1794897;79;21181;-44
2021/03/06 07:35:57;;;;;;;0.50;0.50;;;;;;;0.00;60.18;101337.75;1776175;79;21944;-45
2021/03/06 07:38:57;;;;;;;0.10;0.10;;;;;;;0.18;58.53;101348.09;1770766;79;21169;-45
2021/03/06 07:42:01;;;;;;;0.10;0.10;;;;;;;0.13;57.50;101357.23;1783677;79;21139;-45
2021/03/06 07:45:02;;;;;;;0.10;0.10;;;;;;;0.02;57.86;101348.30;1779364;79;21170;-44
2021/03/06 07:48:07;;;;;;;0.10;0.10;;;;;;;-0.04;58.98;101352.57;1786969;79;21135;-47
2021/03/06 07:51:07;;;;;;;0.10;0.10;;;;;;;-0.02;59.22;101358.08;1751854;79;21159;-45
2021/03/06 07:54:08;;;;;;;0.20;0.20;;;;;;;0.16;59.24;101364.91;1764412;79;21435;-45
2021/03/06 07:57:09;;;;;;;0.15;0.15;;;;;;;0.25;58.34;101370.51;1780875;79;21388;-44
2021/03/06 08:00:11;;;;;;;0.10;0.10;;;;;;;0.28;57.25;101362.58;1779383;79;21170;-45
2021/03/06 08:03:36;;;;;;;0.20;0.10;;;;;;;0.37;58.66;101365.45;1784535;79;21134;-44
2021/03/06 08:06:38;;;;;;;0.30;0.30;;;;;;;0.57;58.72;101370.55;1776922;79;21142;-45
2021/03/06 08:09:45;;;;;;;0.20;0.20;;;;;;;0.77;57.70;101368.06;1767481;79;21124;-44
2021/03/06 08:12:47;;;;;;;0.23;0.23;;;;;;;0.86;56.92;101366.89;1769377;79;21134;-46
2021/03/06 08:15:48;;;;;;;0.10;0.10;;;;;;;0.94;57.43;101368.64;1779756;79;21548;-45
2021/03/06 08:18:49;;;;;;;0.00;0.00;;;;;;;1.03;56.98;101371.49;1767655;81;21138;-45
2021/03/06 08:21:53;;;;;;;0.72;0.72;;;;;;;1.12;57.02;101374.89;1747986;79;21126;-45
2021/03/06 08:24:54;;;;;;;0.00;0.00;;;;;;;1.06;55.28;101372.47;1766741;79;21136;-45
2021/03/06 08:28:31;;;;;;;0.10;0.10;;;;;;;1.07;55.99;101381.38;1769240;79;21586;-45
2021/03/06 08:31:46;;;;;;;0.33;0.33;;;;;;;1.10;55.76;101372.91;1737709;82;21127;-44
2021/03/06 08:34:57;;;;;;;0.10;0.10;;;;;;;1.08;54.35;101374.95;1766788;79;21580;-44
2021/03/06 08:37:57;;;;;;;0.08;0.08;;;;;;;0.98;52.48;101381.18;1772341;79;21152;-44
2021/03/06 08:40:59;;;;;;;0.00;0.00;;;;;;;0.73;52.31;101382.91;1753556;81;21134;-44
2021/03/06 08:44:00;;;;;;;0.10;0.10;;;;;;;0.57;53.97;101391.22;1781299;80;21581;-45
2021/03/06 08:47:01;;;;;;;0.90;0.33;;;;;;;0.60;55.56;101393.55;1762429;80;21148;-45
2021/03/06 08:50:05;;;;;;;0.00;0.00;;;;;;;0.73;54.96;101389.64;1741439;80;21220;-45
2021/03/06 08:53:15;;;;;;;0.10;0.10;;;;;;;0.94;54.23;101394.70;1746067;80;21156;-46
2021/03/06 08:56:16;;;;;;;0.47;0.30;;;;;;;1.11;55.59;101398.78;1783485;80;21119;-45
2021/03/06 08:59:16;;;;;;;0.33;0.33;;;;;;;1.21;54.27;101397.11;1770514;79;21255;-45
2021/03/06 09:02:24;;;;;;;0.10;0.10;;;;;;;1.27;54.86;101401.22;1749955;81;21201;-45
2021/03/06 09:05:33;;;;;;;0.00;0.00;;;;;;;1.33;52.95;101402.80;1750709;79;21166;-46
2021/03/06 09:08:35;;;;;;;0.10;0.10;;;;;;;1.31;54.08;101399.47;1774358;80;21139;-46
2021/03/06 09:11:36;;;;;;;0.03;0.03;;;;;;;1.41;52.04;101408.04;1752165;80;21707;-46
2021/03/06 09:14:36;;;;;;;0.10;0.10;;;;;;;1.51;52.42;101407.21;1776394;80;21557;-46
2021/03/06 09:17:37;;;;;;;0.08;0.08;;;;;;;1.59;51.91;101409.75;1759852;80;21195;-46
2021/03/06 09:20:41;;;;;;;0.10;0.10;;;;;;;1.51;50.35;101415.30;1775270;80;21114;-46
2021/03/06 09:23:50;;;;;;;0.10;0.10;;;;;;;1.27;49.57;101412.51;1775386;80;21179;-46
2021/03/06 09:26:59;;;;;;;0.10;0.10;;;;;;;1.22;50.11;101417.13;1776116;80;21130;-46
2021/03/06 09:29:59;;;;;;;0.00;0.00;;;;;;;1.15;51.56;101416.23;1782248;79;21404;-46
2021/03/06 09:33:01;;;;;;;0.10;0.10;;;;;;;1.15;50.54;101418.92;1775343;80;21613;-44
2021/03/06 09:36:15;;;;;;;0.00;0.00;;;;;;;1.19;52.08;101421.56;1769101;79;21029;-44
2021/03/06 09:39:15;;;;;;;0.00;0.00;;;;;;;1.36;51.04;101425.30;1757653;80;21141;-44
2021/03/06 09:42:15;;;;;;;0.10;0.10;;;;;;;1.47;49.46;101424.78;1746548;80;21099;-44
2021/03/06 09:45:17;;;;;;;0.10;0.10;;;;;;;1.51;51.28;101431.45;1772292;80;21477;-45
2021/03/06 09:48:20;;;;;;;0.08;0.08;;;;;;;1.57;51.28;101433.35;1769001;80;21139;-45
2021/03/06 09:51:21;;;;;;;0.10;0.10;;;;;;;1.48;50.98;101439.91;1776225;80;21190;-44
2021/03/06 09:54:23;;;;;;;0.10;0.10;;;;;;;1.52;50.74;101441.19;1766152;80;21168;-44
2021/03/06 09:57:25;;;;;;;;;;;;;;;1.68;50.52;101453.03;1759233;80;21462;-45
2021/03/06 10:00:31;;;;;;;0.55;0.55;;;;;;;1.86;50.28;101443.09;1759877;79;20534;-45
2021/03/06 10:03:39;;;;;;;0.00;0.00;;;;;;;1.81;45.73;101446.08;1789592;79;21047;-45
2021/03/06 10:06:40;;;;;;;0.10;0.10;;;;;;;1.61;47.36;101441.38;1774163;79;21171;-46
2021/03/06 10:09:41;;;;;;;0.10;0.10;;;;;;;1.67;48.93;101439.22;1768798;81;21193;-45
2021/03/06 10:12:41;;;;;;;0.10;0.10;;;;;;;1.84;48.05;101441.62;1771821;79;21150;-46
2021/03/06 10:15:42;;;;;;;0.10;0.10;;;;;;;2.03;49.02;101442.77;1800892;78;21550;-46
2021/03/06 10:18:47;;;;;;;0.10;0.10;;;;;;;2.14;49.13;101449.78;1758598;80;21449;-45
2021/03/06 10:21:48;;;;;;;0.10;0.10;;;;;;;2.09;46.70;101438.77;1760815;80;21142;-47
2021/03/06 10:25:06;;;;;;;0.10;0.10;;;;;;;2.08;47.96;101431.72;1782595;80;21128;-45
2021/03/06 10:28:16;;;;;;;0.10;0.10;;;;;;;2.12;47.34;101437.02;1794291;79;21161;-46
2021/03/06 10:31:37;;;;;;;3.08;0.20;;;;;;;2.17;46.36;101435.59;1792397;79;21158;-46
2021/03/06 10:34:48;;;;;;;0.03;0.03;;;;;;;2.17;43.46;101438.29;1797443;79;21153;-46
2021/03/06 10:37:50;;;;;;;1.00;0.57;;;;;;;2.06;43.97;101437.00;1801860;79;21552;-45
2021/03/06 10:41:01;;;;;;;0.05;0.05;;;;;;;1.88;41.51;101430.75;1791638;79;21122;-45
2021/03/06 10:44:01;;;;;;;0.00;0.00;;;;;;;1.75;42.54;101435.55;1787805;78;21111;-45
2021/03/06 10:47:06;;;;;;;0.03;0.03;;;;;;;1.68;43.86;101432.83;1812692;78;21091;-46
2021/03/06 10:50:06;;;;;;;0.03;0.03;;;;;;;1.77;43.87;101432.66;1765784;81;21163;-46
2021/03/06 10:53:22;;;;;;;0.10;0.10;;;;;;;1.97;43.48;101432.79;1735838;80;21186;-45
2021/03/06 10:56:26;;;;;;;0.00;0.00;;;;;;;2.18;44.04;101439.94;1809738;78;21118;-46
2021/03/06 10:59:39;;;;;;;0.10;0.10;;;;;;;2.22;41.12;101435.82;1815432;78;21241;-45
2021/03/06 11:02:40;;;;;;;;;;;;;;;2.01;40.07;101437.59;1826107;78;21138;-45
2021/03/06 11:05:41;;;;;;;0.10;0.10;;;;;;;1.98;44.13;101428.55;1799439;78;20337;-46
2021/03/06 11:08:43;;;;;;;0.10;0.10;;;;;;;2.04;41.10;101430.44;1774728;80;21604;-46
2021/03/06 11:11:44;;;;;;;0.10;0.10;;;;;;;2.13;43.43;101421.69;1770893;80;21094;-46
2021/03/06 11:14:45;;;;;;;0.00;0.00;;;;;;;2.18;42.48;101419.22;1785179;79;21130;-46
2021/03/06 11:17:47;;;;;;;0.20;0.20;;;;;;;2.20;39.70;101427.09;1764760;80;21137;-45
2021/03/06 11:20:48;;;;;;;0.15;0.15;;;;;;;2.11;40.65;101427.27;1786291;79;21674;-45
2021/03/06 11:23:48;;;;;;;0.53;0.53;;;;;;;2.04;41.96;101414.79;1792077;78;21185;-46
2021/03/06 11:26:48;;;;;;;0.10;0.10;;;;;;;2.04;41.43;101414.27;1769146;79;21135;-47
2021/03/06 11:29:49;;;;;;;0.23;0.13;;;;;;;2.10;43.96;101420.23;1780935;79;21124;-46
2021/03/06 11:32:49;;;;;;;1.02;0.20;;;;;;;2.26;44.93;101418.22;1804052;78;21106;-47
2021/03/06 11:35:51;;;;;;;0.10;0.10;;;;;;;2.33;42.71;101416.38;1801567;78;21217;-45
2021/03/06 11:38:52;;;;;;;0.00;0.00;;;;;;;2.46;42.36;101422.34;1779032;79;21585;-46
2021/03/06 11:41:53;;;;;;;0.80;0.80;;;;;;;2.50;43.70;101421.74;1770970;80;21118;-46
2021/03/06 11:44:54;;;;;;;0.00;0.00;;;;;;;2.40;42.75;101413.69;1798948;78;21148;-46
2021/03/06 11:47:56;;;;;;;0.10;0.10;;;;;;;2.39;43.63;101410.69;1776661;79;21118;-45
2021/03/06 11:50:57;;;;;;;0.10;0.10;;;;;;;2.38;42.84;101417.96;1793761;78;21136;-46
2021/03/06 11:53:57;;;;;;;0.00;0.00;;;;;;;2.30;43.33;101418.97;1797386;78;21169;-47
2021/03/06 11:56:59;;;;;;;0.23;0.23;;;;;;;2.27;44.02;101413.95;1790249;78;21511;-45
2021/03/06 12:00:01;;;;;;;0.10;0.10;;;;;;;2.20;42.61;101413.12;1811220;78;21114;-45
2021/03/06 12:03:03;;;;;;;0.10;0.10;;;;;;;2.10;42.73;101413.48;1789562;79;21654;-45
2021/03/06 12:06:04;;;;;;;0.00;0.00;;;;;;;2.03;43.04;101409.06;1778935;80;21596;-46
2021/03/06 12:09:05;;;;;;;6.72;0.75;;;;;;;2.05;41.98;101414.60;1808795;78;21178;-45
2021/03/06 12:12:05;;;;;;;0.03;0.03;;;;;;;2.21;39.95;101413.42;1773458;80;21122;-44
2021/03/06 12:15:06;;;;;;;0.00;0.00;;;;;;;2.32;39.72;101417.40;1783082;78;21988;-45
2021/03/06 12:18:07;;;;;;;0.00;0.00;;;;;;;2.40;40.36;101417.25;1786892;80;21121;-44
2021/03/06 12:21:08;;;;;;;0.00;0.00;;;;;;;2.46;41.35;101415.08;1813788;78;21137;-44
2021/03/06 12:24:09;;;;;;;0.10;0.10;;;;;;;2.47;40.20;101412.68;1821375;78;21135;-44
2021/03/06 12:27:10;;;;;;;0.08;0.08;;;;;;;2.50;40.00;101419.56;1802003;78;21107;-44
2021/03/06 12:30:16;;;;;;;0.33;0.20;;;;;;;2.47;39.76;101412.68;1787784;78;21148;-45
2021/03/06 12:33:17;;;;;;;0.00;0.00;;;;;;;2.46;41.21;101418.30;1779055;79;21142;-45
2021/03/06 12:36:18;;;;;;;1.87;1.10;;;;;;;2.51;39.40;101410.42;1788036;79;21153;-44
2021/03/06 12:39:19;;;;;;;0.00;0.00;;;;;;;2.53;39.18;101409.71;1784761;78;21134;-45
2021/03/06 12:42:20;;;;;;;0.10;0.10;;;;;;;2.56;38.46;101420.09;1786488;79;21141;-44
2021/03/06 12:45:20;;;;;;;0.20;0.20;;;;;;;2.51;39.40;101421.22;1791622;79;21169;-44
2021/03/06 12:48:21;;;;;;;0.03;0.03;;;;;;;2.44;37.04;101419.84;1771768;80;20987;-44
2021/03/06 12:51:22;;;;;;;0.10;0.10;;;;;;;2.42;36.03;101415.16;1794671;79;21142;-44
2021/03/06 12:54:24;;;;;;;0.17;0.15;;;;;;;2.42;36.37;101404.89;1790805;78;21298;-44
2021/03/06 12:57:25;;;;;;;0.10;0.10;;;;;;;2.43;37.50;101411.44;1779513;78;21169;-44
2021/03/06 13:00:28;;;;;;;0.10;0.10;;;;;;;2.47;38.00;101411.33;1764308;80;21138;-44
2021/03/06 13:03:30;;;;;;;0.00;0.00;;;;;;;2.40;38.87;101419.09;1779127;80;21652;-44
2021/03/06 13:06:30;;;;;;;0.00;0.00;;;;;;;2.32;36.96;101418.75;1785536;78;21151;-44
2021/03/06 13:09:31;;;;;;;0.00;0.00;;;;;;;2.24;38.03;101416.23;1807399;78;21870;-45
2021/03/06 13:12:32;;;;;;;0.17;0.17;;;;;;;2.21;38.23;101413.95;1780822;80;21138;-44
2021/03/06 13:15:33;;;;;;;0.10;0.10;;;;;;;2.29;38.67;101419.16;1775404;78;21111;-44
2021/03/06 13:18:34;;;;;;;0.03;0.03;;;;;;;2.35;37.94;101421.06;1801884;78;21142;-44
2021/03/06 13:21:34;;;;;;;0.10;0.10;;;;;;;2.36;38.48;101425.41;1789174;78;21143;-45
2021/03/06 13:24:36;;;;;;;0.00;0.00;;;;;;;2.38;37.49;101417.96;1782104;78;21182;-46
2021/03/06 13:27:37;;;;;;;0.53;0.53;;;;;;;2.40;37.40;101411.85;1782827;80;21150;-46
2021/03/06 13:30:38;;;;;;;2.02;1.47;;;;;;;2.41;37.82;101422.95;1794247;78;20984;-45
2021/03/06 13:33:41;;;;;;;5.65;0.40;;;;;;;2.35;36.48;101421.89;1770781;80;21139;-45
2021/03/06 13:36:43;;;;;;;0.30;0.30;;;;;;;2.28;36.00;101422.90;1793923;78;21110;-45
2021/03/06 13:39:43;;;;;;;0.00;0.00;;;;;;;2.18;36.99;101416.53;1780345;79;21119;-45
2021/03/06 13:42:46;;;;;;;1.10;0.60;;;;;;;2.13;36.69;101417.13;1768816;78;21137;-45
2021/03/06 13:45:46;;;;;;;0.15;0.15;;;;;;;2.09;36.92;101417.20;1798446;78;21148;-46
2021/03/06 13:48:47;;;;;;;0.10;0.10;;;;;;;2.11;36.76;101415.14;1792933;78;21445;-46
2021/03/06 13:51:49;;;;;;;0.10;0.10;;;;;;;2.19;38.30;101415.48;1804021;77;21147;-45
2021/03/06 13:54:50;;;;;;;0.10;0.10;;;;;;;2.28;37.59;101413.46;1766493;80;21146;-43
2021/03/06 13:57:51;;;;;;;0.03;0.03;;;;;;;2.37;38.04;101414.93;1791084;78;21114;-44
2021/03/06 14:00:52;;;;;;;0.10;0.10;;;;;;;2.50;37.97;101405.55;1802829;78;21464;-44
2021/03/06 14:03:54;;;;;;;0.10;0.10;;;;;;;2.64;37.66;101409.63;1790446;78;21132;-45
2021/03/06 14:06:58;;;;;;;0.40;0.40;;;;;;;2.79;37.93;101412.98;1770136;79;21126;-45
2021/03/06 14:10:00;;;;;;;0.00;0.00;;;;;;;2.84;37.06;101407.80;1775885;79;21137;-46
2021/03/06 14:13:01;;;;;;;0.00;0.00;;;;;;;2.84;37.49;101411.84;1761945;80;21552;-45
2021/03/06 14:16:03;;;;;;;0.00;0.00;;;;;;;2.80;37.02;101414.66;1764021;79;21153;-45